Time;durP1;ratioP1;P1;durP2;ratioP2;P2;SDS_P1;SDS_P2;PMS_P1;PMS_P2;Temp;Humidity;BMP_temperature;BMP_pressure;BME280_temperature;BME280_humidity;BME280_pressure;Samples;Min_cycle;Max_cycle;Signal;HPM_P1;HPM_P2
2023/09/26 00:00:21;;;;;;;10.30;8.10;;;;;;;17.32;100.00;101521.71;88473;273;138949;-64
2023/09/26 00:02:25;;;;;;;10.40;9.30;;;;;;;17.34;100.00;101520.63;88422;276;22537;-62
2023/09/26 00:04:26;;;;;;;10.70;9.80;;;;;;;17.33;100.00;101523.36;88520;282;136637;-63
2023/09/26 00:06:29;;;;;;;10.50;9.50;;;;;;;17.38;100.00;101518.86;88620;274;25103;-63
2023/09/26 00:08:31;;;;;;;11.60;9.80;;;;;;;17.37;100.00;101520.89;88526;277;137304;-61
2023/09/26 00:10:32;;;;;;;11.50;8.80;;;;;;;17.37;100.00;101517.20;88568;274;25154;-62
2023/09/26 00:12:34;;;;;;;10.30;9.40;;;;;;;17.37;100.00;101518.78;88525;281;138103;-62
2023/09/26 00:14:37;;;;;;;15.10;9.60;;;;;;;17.36;100.00;101520.85;88580;275;25306;-63
2023/09/26 00:16:39;;;;;;;10.00;8.40;;;;;;;17.35;100.00;101518.52;88390;278;136948;-63
2023/09/26 00:18:42;;;;;;;10.00;9.00;;;;;;;17.34;100.00;101515.70;88525;275;24166;-62
2023/09/26 00:20:44;;;;;;;8.50;7.80;;;;;;;17.35;100.00;101517.19;88522;273;138598;-66
2023/09/26 00:22:46;;;;;;;9.60;8.60;;;;;;;17.37;100.00;101518.23;88617;280;25211;-64
2023/09/26 00:24:48;;;;;;;9.70;8.80;;;;;;;17.39;100.00;101519.56;88454;279;137839;-66
2023/09/26 00:26:50;;;;;;;9.70;8.90;;;;;;;17.38;100.00;101522.27;88538;273;24049;-60
2023/09/26 00:28:52;;;;;;;12.50;10.40;;;;;;;17.36;100.00;101523.58;88415;273;137112;-61
2023/09/26 00:30:56;;;;;;;9.90;8.90;;;;;;;17.34;100.00;101526.19;89494;281;24231;-63
2023/09/26 00:32:59;;;;;;;10.10;9.20;;;;;;;17.34;100.00;101531.54;88485;277;136842;-63
2023/09/26 00:35:01;;;;;;;10.40;9.50;;;;;;;17.35;100.00;101533.91;88540;282;25546;-64
2023/09/26 00:37:05;;;;;;;9.60;8.50;;;;;;;17.33;100.00;101533.44;88517;280;137393;-64
2023/09/26 00:39:07;;;;;;;10.90;9.80;;;;;;;17.29;100.00;101532.86;88682;281;24347;-59
2023/09/26 00:41:10;;;;;;;8.20;7.40;;;;;;;17.27;100.00;101530.69;88466;281;137444;-63
2023/09/26 00:43:21;;;;;;;9.10;8.20;;;;;;;17.19;100.00;101521.39;88578;282;24090;-63
2023/09/26 00:45:23;;;;;;;9.70;8.90;;;;;;;17.24;100.00;101532.30;88447;277;137276;-61
2023/09/26 00:47:25;;;;;;;11.80;9.70;;;;;;;17.18;100.00;101530.75;88643;277;24100;-61
2023/09/26 00:49:29;;;;;;;10.50;9.50;;;;;;;17.12;100.00;101528.13;88482;273;137341;-60
2023/09/26 00:51:32;;;;;;;9.10;8.30;;;;;;;17.08;100.00;101538.52;88725;275;23043;-62
2023/09/26 00:53:38;;;;;;;9.10;8.40;;;;;;;17.07;100.00;101540.00;88475;281;138055;-60
2023/09/26 00:55:43;;;;;;;10.60;8.40;;;;;;;17.04;100.00;101541.56;88608;281;22537;-60
2023/09/26 00:57:46;;;;;;;10.90;9.90;;;;;;;17.01;100.00;101538.40;88564;277;137360;-62
2023/09/26 00:59:48;;;;;;;11.40;10.40;;;;;;;16.97;100.00;101541.28;88502;275;22545;-64
2023/09/26 01:01:50;;;;;;;10.70;9.60;;;;;;;16.93;100.00;101539.54;88287;281;137521;-65
2023/09/26 01:03:57;;;;;;;10.50;9.50;;;;;;;16.92;100.00;101540.64;88542;274;25120;-62
2023/09/26 01:06:02;;;;;;;11.00;10.10;;;;;;;16.90;100.00;101540.48;88597;280;138180;-63
2023/09/26 01:08:05;;;;;;;11.30;9.90;;;;;;;16.86;100.00;101541.20;88580;273;137960;-63
2023/09/26 01:10:12;;;;;;;11.60;10.60;;;;;;;16.85;100.00;101541.79;88527;274;22541;-64
2023/09/26 01:12:16;;;;;;;13.70;10.50;;;;;;;16.86;100.00;101540.37;88386;274;137842;-64
2023/09/26 01:14:18;;;;;;;10.80;9.80;;;;;;;16.88;100.00;101541.17;88552;277;21765;-63
2023/09/26 01:16:20;;;;;;;11.50;10.40;;;;;;;16.87;100.00;101539.64;88260;275;137877;-63
2023/09/26 01:18:23;;;;;;;12.20;11.00;;;;;;;16.82;100.00;101538.51;88561;281;22551;-62
2023/09/26 01:20:25;;;;;;;12.10;11.00;;;;;;;16.81;100.00;101539.48;88428;281;138830;-60
2023/09/26 01:22:30;;;;;;;12.40;11.10;;;;;;;16.72;100.00;101530.50;88555;273;25080;-61
2023/09/26 01:24:33;;;;;;;12.90;11.70;;;;;;;16.75;100.00;101536.56;88500;282;137887;-60
2023/09/26 01:26:36;;;;;;;12.10;10.70;;;;;;;16.71;100.00;101537.05;88587;275;24170;-62
2023/09/26 01:28:38;;;;;;;11.10;10.10;;;;;;;16.66;100.00;101533.91;88582;280;138303;-65
2023/09/26 01:30:40;;;;;;;12.70;11.40;;;;;;;16.61;100.00;101538.54;88570;275;25087;-63
2023/09/26 01:32:42;;;;;;;12.40;11.10;;;;;;;16.59;100.00;101535.70;88486;281;139006;-64
2023/09/26 01:34:44;;;;;;;12.40;11.20;;;;;;;16.55;100.00;101526.69;88673;281;24055;-63
2023/09/26 01:36:46;;;;;;;15.30;12.20;;;;;;;16.61;100.00;101535.75;88388;283;137580;-63
2023/09/26 01:38:50;;;;;;;10.90;9.90;;;;;;;16.56;100.00;101536.27;88694;281;22555;-63
2023/09/26 01:40:52;;;;;;;12.40;10.70;;;;;;;16.54;100.00;101539.20;88478;281;137366;-66
2023/09/26 01:42:53;;;;;;;15.10;12.50;;;;;;;16.52;100.00;101536.77;88559;281;25167;-63
2023/09/26 01:44:55;;;;;;;13.00;11.70;;;;;;;16.51;100.00;101537.23;88674;273;137633;-62
2023/09/26 01:46:57;;;;;;;12.50;11.20;;;;;;;16.48;100.00;101538.54;88541;282;22535;-65
2023/09/26 01:49:00;;;;;;;12.10;11.00;;;;;;;16.43;100.00;101540.25;88617;273;137557;-59
2023/09/26 01:51:05;;;;;;;12.60;11.40;;;;;;;16.45;100.00;101549.00;88657;281;22609;-65
2023/09/26 01:53:09;;;;;;;13.70;12.30;;;;;;;16.48;100.00;101552.36;88381;279;138563;-64
2023/09/26 01:55:16;;;;;;;16.40;12.10;;;;;;;16.49;100.00;101559.21;88721;277;22523;-61
2023/09/26 01:57:18;;;;;;;13.00;11.70;;;;;;;16.48;100.00;101557.66;88502;282;137348;-64
2023/09/26 01:59:22;;;;;;;13.30;12.10;;;;;;;16.44;100.00;101557.23;88456;283;22619;-62
2023/09/26 02:03:48;;;;;;;14.60;11.50;;;;;;;16.33;100.00;101563.41;86817;306;602392;-64
2023/09/26 02:05:56;;;;;;;15.30;13.30;;;;;;;16.33;100.00;101569.36;87684;296;137486;-64
2023/09/26 02:07:58;;;;;;;12.20;10.70;;;;;;;16.28;100.00;101574.09;87955;295;22918;-62
2023/09/26 02:10:00;;;;;;;12.70;11.60;;;;;;;16.34;100.00;101569.95;87826;294;136858;-61
2023/09/26 02:12:03;;;;;;;12.50;11.30;;;;;;;16.31;100.00;101570.55;87986;294;23972;-64
2023/09/26 02:14:07;;;;;;;12.20;11.10;;;;;;;16.30;100.00;101572.23;88092;290;22712;-64
2023/09/26 02:16:12;;;;;;;14.00;12.50;;;;;;;16.28;100.00;101572.23;88177;281;139186;-62
2023/09/26 02:18:14;;;;;;;;;;;;;;;16.28;100.00;101571.85;87840;286;552064;-62
2023/09/26 02:20:18;;;;;;;12.50;11.30;;;;;;;16.28;100.00;101568.83;88145;280;123834;-60
2023/09/26 02:22:20;;;;;;;16.60;12.40;;;;;;;16.25;100.00;101564.00;88228;283;22613;-61
2023/09/26 02:24:23;;;;;;;11.50;10.40;;;;;;;16.24;100.00;101565.13;88120;283;137190;-59
2023/09/26 02:26:25;;;;;;;14.40;12.90;;;;;;;16.27;100.00;101566.09;88250;286;22575;-61
2023/09/26 02:28:27;;;;;;;12.80;10.80;;;;;;;16.33;100.00;101567.41;88197;286;137262;-63
2023/09/26 02:30:29;;;;;;;10.80;9.80;;;;;;;16.32;100.00;101569.90;88253;285;23581;-61
2023/09/26 02:32:35;;;;;;;13.80;11.80;;;;;;;16.32;100.00;101563.77;88431;284;136873;-62
2023/09/26 02:34:37;;;;;;;16.50;12.70;;;;;;;16.34;100.00;101560.31;88212;280;25380;-63
2023/09/26 02:36:39;;;;;;;16.70;12.80;;;;;;;16.36;100.00;101565.71;88246;283;136903;-63
2023/09/26 02:38:41;;;;;;;15.80;13.30;;;;;;;16.41;100.00;101568.72;88346;285;25352;-59
2023/09/26 02:40:42;;;;;;;14.40;13.10;;;;;;;16.42;100.00;101576.73;88217;287;137016;-62
2023/09/26 02:42:45;;;;;;;13.00;11.60;;;;;;;16.41;100.00;101578.08;88418;285;22586;-61
2023/09/26 02:44:47;;;;;;;15.20;12.60;;;;;;;16.43;100.00;101577.59;88199;287;137181;-60
2023/09/26 02:46:48;;;;;;;13.50;12.20;;;;;;;16.44;100.00;101579.62;88395;285;22652;-61
2023/09/26 02:48:50;;;;;;;12.00;10.90;;;;;;;16.43;100.00;101581.90;88134;286;137136;-63
2023/09/26 02:51:02;;;;;;;14.80;12.00;;;;;;;16.41;100.00;101581.84;88300;287;25303;-63
2023/09/26 02:53:05;;;;;;;14.70;12.10;;;;;;;16.43;100.00;101586.89;88252;284;137096;-64
2023/09/26 02:55:08;;;;;;;11.80;10.70;;;;;;;16.41;100.00;101586.96;88495;284;25170;-65
2023/09/26 02:57:10;;;;;;;11.50;10.30;;;;;;;16.44;100.00;101591.50;88283;281;136930;-64
2023/09/26 02:59:12;;;;;;;11.20;10.10;;;;;;;16.48;100.00;101589.05;88290;279;22576;-62
2023/09/26 03:01:18;;;;;;;12.40;11.10;;;;;;;16.52;100.00;101592.96;88347;277;136829;-63
2023/09/26 03:03:20;;;;;;;11.70;10.60;;;;;;;16.53;100.00;101593.21;88322;283;24249;-61
2023/09/26 03:05:22;;;;;;;12.10;11.00;;;;;;;16.48;100.00;101595.92;88187;280;137004;-59
2023/09/26 03:07:24;;;;;;;12.90;11.30;;;;;;;16.49;100.00;101596.95;88388;285;22537;-59
2023/09/26 03:09:25;;;;;;;12.90;11.70;;;;;;;16.49;100.00;101593.73;88183;286;136967;-59
2023/09/26 03:11:29;;;;;;;14.00;11.10;;;;;;;16.50;100.00;101596.80;88155;287;25189;-60
2023/09/26 03:13:33;;;;;;;12.40;11.20;;;;;;;16.51;100.00;101599.89;88647;281;138193;-60
2023/09/26 03:15:35;;;;;;;12.60;11.40;;;;;;;16.53;100.00;101593.68;88926;282;25047;-58
2023/09/26 03:17:37;;;;;;;12.10;10.80;;;;;;;16.54;100.00;101598.12;88542;280;137057;-59
2023/09/26 03:19:40;;;;;;;12.40;10.50;;;;;;;16.54;100.00;101596.41;88630;274;25256;-62
2023/09/26 03:21:41;;;;;;;11.20;10.10;;;;;;;16.55;100.00;101597.25;88439;274;137390;-60
2023/09/26 03:23:43;;;;;;;11.80;10.10;;;;;;;16.54;100.00;101598.98;88584;281;22615;-61
2023/09/26 03:25:45;;;;;;;11.60;10.50;;;;;;;16.52;100.00;101594.20;88398;275;137175;-62
2023/09/26 03:27:47;;;;;;;10.70;9.60;;;;;;;16.53;100.00;101598.20;88406;280;25087;-60
2023/09/26 03:29:50;;;;;;;10.10;9.20;;;;;;;16.53;100.00;101597.08;88231;283;139182;-59
2023/09/26 03:31:52;;;;;;;11.80;10.70;;;;;;;16.54;100.00;101594.88;88475;281;24069;-58
2023/09/26 03:33:54;;;;;;;16.90;11.40;;;;;;;16.54;100.00;101599.65;88431;274;137022;-61
2023/09/26 03:35:57;;;;;;;11.70;10.60;;;;;;;16.58;100.00;101601.42;88363;281;25139;-62
2023/09/26 03:37:59;;;;;;;12.30;11.10;;;;;;;16.59;100.00;101604.98;88346;283;137606;-61
2023/09/26 03:40:01;;;;;;;11.70;10.60;;;;;;;16.62;100.00;101604.12;88513;282;23629;-59
2023/09/26 03:42:03;;;;;;;13.10;10.90;;;;;;;16.59;100.00;101605.02;88569;281;22523;-63
2023/09/26 03:44:05;;;;;;;12.60;10.20;;;;;;;16.61;100.00;101606.02;88532;281;137157;-61
2023/09/26 03:46:08;;;;;;;12.40;11.30;;;;;;;16.63;100.00;101605.83;88471;282;22520;-61
2023/09/26 03:48:09;;;;;;;10.60;9.60;;;;;;;16.59;100.00;101604.10;88536;281;137573;-62
2023/09/26 03:50:11;;;;;;;11.10;9.90;;;;;;;16.59;100.00;101606.14;88633;281;24392;-61
2023/09/26 03:52:15;;;;;;;10.20;9.40;;;;;;;16.60;100.00;101605.48;88481;277;137205;-60
2023/09/26 03:54:17;;;;;;;11.00;9.90;;;;;;;16.61;100.00;101606.02;88554;282;22566;-60
2023/09/26 03:56:19;;;;;;;11.00;9.90;;;;;;;16.63;100.00;101612.27;88438;274;138753;-60
2023/09/26 03:58:21;;;;;;;10.20;9.40;;;;;;;16.62;100.00;101607.92;88596;281;25216;-61
2023/09/26 04:00:26;;;;;;;12.60;11.00;;;;;;;16.61;100.00;101610.38;88424;278;137150;-62
2023/09/26 04:02:28;;;;;;;12.10;11.10;;;;;;;16.60;100.00;101610.41;88392;275;22531;-60
2023/09/26 04:04:31;;;;;;;12.30;10.50;;;;;;;16.54;100.00;101611.66;88114;274;137007;-61
2023/09/26 04:06:33;;;;;;;13.10;10.20;;;;;;;16.54;100.00;101611.79;91301;281;22202;-59
2023/09/26 04:08:36;;;;;;;16.50;11.40;;;;;;;16.55;100.00;101610.17;91224;281;136966;-59
2023/09/26 04:10:38;;;;;;;12.10;10.90;;;;;;;16.61;100.00;101614.81;91338;281;22271;-60
2023/09/26 04:12:40;;;;;;;11.50;9.50;;;;;;;16.60;100.00;101605.23;91115;283;137134;-62
2023/09/26 04:14:42;;;;;;;10.60;9.60;;;;;;;16.69;100.00;101610.31;91322;282;22379;-60
2023/09/26 04:16:43;;;;;;;12.50;10.30;;;;;;;16.73;100.00;101612.32;91255;281;136892;-59
2023/09/26 04:18:45;;;;;;;10.80;9.90;;;;;;;16.78;100.00;101611.92;88402;281;22602;-59
2023/09/26 04:20:49;;;;;;;10.00;9.00;;;;;;;16.80;100.00;101614.02;88490;274;137108;-61
2023/09/26 04:22:51;;;;;;;12.20;10.90;;;;;;;16.81;100.00;101611.92;88797;281;24472;-57
2023/09/26 04:24:53;;;;;;;10.40;9.30;;;;;;;16.83;100.00;101616.61;88330;281;139419;-58
2023/09/26 04:26:55;;;;;;;12.70;11.40;;;;;;;16.84;100.00;101616.52;88342;279;25074;-60
2023/09/26 04:28:59;;;;;;;11.20;10.20;;;;;;;16.82;100.00;101617.35;88346;283;136947;-62
2023/09/26 04:31:01;;;;;;;14.10;11.90;;;;;;;16.84;100.00;101618.91;88383;282;24056;-57
2023/09/26 04:33:04;;;;;;;11.10;10.10;;;;;;;16.85;100.00;101620.45;88374;282;136969;-58
2023/09/26 04:35:07;;;;;;;13.60;11.50;;;;;;;16.87;100.00;101619.21;88418;278;22556;-60
2023/09/26 04:37:09;;;;;;;12.50;10.90;;;;;;;16.89;100.00;101615.92;88423;282;136930;-62
2023/09/26 04:39:11;;;;;;;11.90;10.90;;;;;;;16.94;100.00;101621.20;88506;278;25115;-63
2023/09/26 04:41:16;;;;;;;13.90;12.20;;;;;;;16.92;100.00;101622.11;88506;277;137227;-59
2023/09/26 04:43:18;;;;;;;11.10;9.90;;;;;;;16.89;100.00;101626.48;88618;277;24097;-59
2023/09/26 04:45:20;;;;;;;11.20;10.30;;;;;;;16.87;100.00;101626.02;88351;278;137055;-59
2023/09/26 04:47:21;;;;;;;11.90;10.80;;;;;;;16.85;100.00;101627.16;88453;274;25535;-64
2023/09/26 04:49:23;;;;;;;12.70;11.40;;;;;;;16.83;100.00;101628.67;88275;274;137270;-67
2023/09/26 04:51:25;;;;;;;11.40;10.40;;;;;;;16.80;100.00;101630.50;88369;280;24058;-65
2023/09/26 04:53:27;;;;;;;11.30;10.40;;;;;;;16.75;100.00;101630.89;88302;282;138841;-65
2023/09/26 04:55:29;;;;;;;11.40;10.30;;;;;;;16.72;100.00;101634.27;88227;280;25213;-65
2023/09/26 04:57:31;;;;;;;11.80;10.60;;;;;;;16.71;100.00;101635.95;88232;281;138971;-61
2023/09/26 04:59:33;;;;;;;13.40;11.20;;;;;;;16.67;100.00;101635.56;88450;278;22554;-65
2023/09/26 05:01:36;;;;;;;11.90;10.70;;;;;;;16.59;100.00;101630.16;88333;274;137248;-66
2023/09/26 05:03:39;;;;;;;11.20;9.90;;;;;;;16.67;100.00;101636.51;88528;282;25325;-65
2023/09/26 05:05:42;;;;;;;11.50;10.50;;;;;;;16.70;100.00;101634.08;88442;276;136961;-67
2023/09/26 05:07:45;;;;;;;12.90;11.00;;;;;;;16.74;100.00;101639.33;88615;275;23836;-63
2023/09/26 05:09:47;;;;;;;12.30;11.30;;;;;;;16.77;100.00;101642.69;88493;278;138321;-63
2023/09/26 05:11:49;;;;;;;12.20;10.80;;;;;;;16.82;100.00;101636.90;88416;280;23638;-66
2023/09/26 05:13:51;;;;;;;13.80;11.80;;;;;;;16.85;100.00;101639.89;88288;276;138260;-64
2023/09/26 05:15:53;;;;;;;12.70;11.50;;;;;;;16.87;100.00;101645.20;88452;281;24097;-63
2023/09/26 05:17:56;;;;;;;13.10;10.60;;;;;;;16.93;100.00;101639.98;88319;281;137033;-61
2023/09/26 05:19:58;;;;;;;14.70;11.40;;;;;;;17.03;100.00;101647.69;88481;278;22549;-65
2023/09/26 05:22:01;;;;;;;15.70;13.00;;;;;;;17.10;100.00;101644.08;88415;281;136949;-61
2023/09/26 05:24:04;;;;;;;15.30;13.70;;;;;;;17.12;100.00;101636.66;88499;282;137944;-62
2023/09/26 05:26:12;;;;;;;13.30;12.00;;;;;;;17.24;100.00;101647.96;88484;282;22728;-64
2023/09/26 05:28:14;;;;;;;15.00;12.60;;;;;;;17.32;100.00;101645.54;88356;274;138654;-60
2023/09/26 05:30:16;;;;;;;11.90;10.70;;;;;;;17.40;100.00;101645.94;88484;282;25226;-59
2023/09/26 05:32:18;;;;;;;12.10;10.90;;;;;;;17.46;100.00;101644.35;88427;283;142243;-62
2023/09/26 05:34:20;;;;;;;11.90;10.80;;;;;;;17.51;100.00;101646.23;88531;282;22362;-64
2023/09/26 05:36:22;;;;;;;12.10;10.80;;;;;;;17.56;100.00;101650.95;88365;274;137798;-63
2023/09/26 05:38:25;;;;;;;12.00;10.20;;;;;;;17.61;100.00;101653.48;88544;274;25248;-60
2023/09/26 05:40:27;;;;;;;11.90;10.80;;;;;;;17.68;100.00;101650.94;88366;282;137321;-62
2023/09/26 05:42:29;;;;;;;14.20;11.30;;;;;;;17.72;100.00;101654.96;88462;282;22537;-62
2023/09/26 05:44:31;;;;;;;10.50;9.60;;;;;;;17.76;100.00;101653.44;88371;282;137463;-65
2023/09/26 05:46:32;;;;;;;10.70;9.70;;;;;;;17.77;100.00;101657.22;88428;282;25216;-62
2023/09/26 05:48:36;;;;;;;14.70;10.90;;;;;;;17.76;100.00;101658.66;88311;275;137444;-61
2023/09/26 05:50:38;;;;;;;11.20;10.20;;;;;;;17.77;100.00;101655.39;88681;281;22551;-59
2023/09/26 05:52:40;;;;;;;13.20;10.90;;;;;;;17.78;100.00;101656.55;88586;281;137531;-62
2023/09/26 05:54:42;;;;;;;16.90;11.60;;;;;;;17.79;100.00;101651.96;88657;276;22690;-60
2023/09/26 05:56:44;;;;;;;11.80;9.30;;;;;;;17.74;100.00;101643.27;88498;274;137381;-62
2023/09/26 05:58:49;;;;;;;11.50;10.50;;;;;;;17.85;100.00;101652.57;88353;283;22559;-64
2023/09/26 06:00:51;;;;;;;;;;;;;;;17.90;100.00;101652.23;88345;281;137525;-62
2023/09/26 06:02:54;;;;;;;12.90;10.90;;;;;;;17.94;100.00;101652.02;88406;275;25616;-63
2023/09/26 06:04:56;;;;;;;12.10;9.90;;;;;;;17.99;100.00;101655.60;88288;282;137402;-61
2023/09/26 06:06:58;;;;;;;10.70;9.80;;;;;;;18.04;100.00;101654.89;88390;282;25229;-63
2023/09/26 06:09:01;;;;;;;10.90;9.80;;;;;;;18.08;100.00;101656.81;88269;281;138775;-62
2023/09/26 06:11:04;;;;;;;11.10;10.00;;;;;;;18.13;100.00;101657.35;88533;281;24014;-69
2023/09/26 06:13:06;;;;;;;12.30;11.00;;;;;;;18.13;100.00;101656.55;88435;281;138953;-66
2023/09/26 06:15:09;;;;;;;11.70;10.30;;;;;;;18.14;100.00;101650.91;88450;274;23598;-67
2023/09/26 06:17:11;;;;;;;10.00;9.00;;;;;;;18.14;100.00;101656.27;88508;273;137265;-64
2023/09/26 06:19:13;;;;;;;15.00;9.30;;;;;;;18.14;100.00;101660.12;88470;281;21530;-62
2023/09/26 06:21:18;;;;;;;10.90;10.00;;;;;;;18.13;100.00;101658.02;88413;281;137207;-71
2023/09/26 06:23:21;;;;;;;10.70;9.60;;;;;;;18.12;100.00;101650.41;88311;282;23003;-61
2023/09/26 06:25:23;;;;;;;9.40;8.70;;;;;;;18.26;100.00;101663.71;88284;274;138355;-64
2023/09/26 06:27:26;;;;;;;16.50;9.20;;;;;;;18.27;100.00;101659.69;88397;279;22603;-64
2023/09/26 06:29:29;;;;;;;10.40;9.50;;;;;;;18.23;100.00;101661.47;88411;282;137364;-63
2023/09/26 06:31:31;;;;;;;11.10;9.00;;;;;;;18.24;100.00;101661.92;88462;282;22563;-64
2023/09/26 06:33:35;;;;;;;13.50;10.00;;;;;;;18.31;100.00;101662.95;88245;276;137549;-62
2023/09/26 06:35:36;;;;;;;11.00;9.90;;;;;;;18.40;100.00;101659.48;88451;278;23756;-62
2023/09/26 06:37:38;;;;;;;11.90;10.40;;;;;;;18.44;100.00;101659.34;88349;282;137358;-61
2023/09/26 06:39:40;;;;;;;10.20;9.20;;;;;;;18.48;100.00;101662.29;88415;282;25115;-59
2023/09/26 06:41:42;;;;;;;11.20;10.20;;;;;;;18.58;100.00;101663.83;88786;278;136947;-58
2023/09/26 06:43:44;;;;;;;11.10;10.00;;;;;;;18.70;100.00;101666.84;88692;278;26016;-57
2023/09/26 06:45:47;;;;;;;10.80;9.90;;;;;;;18.83;100.00;101669.79;88373;276;137875;-60
2023/09/26 06:47:48;;;;;;;11.90;9.50;;;;;;;18.95;100.00;101670.66;88507;274;24033;-60
2023/09/26 06:49:52;;;;;;;11.10;9.60;;;;;;;19.02;100.00;101673.59;88408;274;137117;-65
2023/09/26 06:51:56;;;;;;;10.30;9.40;;;;;;;19.00;100.00;101679.79;88537;274;22533;-68
2023/09/26 06:53:58;;;;;;;10.90;9.80;;;;;;;18.98;100.00;101678.51;88447;274;138583;-63
2023/09/26 06:56:07;;;;;;;10.90;10.00;;;;;;;18.99;100.00;101678.25;88314;274;26202;-64
2023/09/26 06:58:10;;;;;;;11.50;10.30;;;;;;;19.02;100.00;101677.66;88603;278;22634;-63
2023/09/26 07:00:16;;;;;;;11.30;10.00;;;;;;;19.04;100.00;101681.52;88366;274;138345;-62
2023/09/26 07:02:20;;;;;;;9.60;8.70;;;;;;;19.06;100.00;101678.48;88512;274;24860;-63
2023/09/26 07:04:22;;;;;;;16.20;9.90;;;;;;;19.06;100.00;101676.40;88770;282;137387;-63
2023/09/26 07:06:23;;;;;;;11.50;9.50;;;;;;;19.07;100.00;101677.56;88395;282;23455;-63
2023/09/26 07:08:25;;;;;;;10.60;9.60;;;;;;;19.11;100.00;101678.21;88257;278;137585;-64
2023/09/26 07:10:28;;;;;;;11.80;9.40;;;;;;;19.14;100.00;101675.10;88360;276;25211;-60
2023/09/26 07:12:30;;;;;;;9.70;8.80;;;;;;;19.19;100.00;101676.08;88231;276;137212;-65
2023/09/26 07:14:35;;;;;;;8.70;8.00;;;;;;;19.25;100.00;101671.40;88640;281;22610;-63
2023/09/26 07:16:37;;;;;;;10.60;9.10;;;;;;;19.29;100.00;101666.72;88222;283;139955;-61
2023/09/26 07:18:39;;;;;;;12.30;9.10;;;;;;;19.29;100.00;101655.57;88343;283;22536;-64
2023/09/26 07:20:47;;;;;;;9.80;8.90;;;;;;;19.40;100.00;101667.89;88371;281;137711;-64
2023/09/26 07:22:49;;;;;;;10.70;9.50;;;;;;;19.42;100.00;101665.38;88606;282;22865;-68
2023/09/26 07:24:51;;;;;;;10.90;10.00;;;;;;;19.38;100.00;101668.44;88263;275;136904;-66
2023/09/26 07:26:53;;;;;;;11.70;10.70;;;;;;;19.28;100.00;101667.60;88454;274;25083;-60
2023/09/26 07:28:55;;;;;;;10.70;9.70;;;;;;;19.16;100.00;101665.60;88394;274;138961;-62
2023/09/26 07:30:57;;;;;;;9.80;8.90;;;;;;;19.07;100.00;101666.02;88512;274;22617;-66
2023/09/26 07:32:59;;;;;;;9.50;8.80;;;;;;;19.02;100.00;101663.20;88324;274;138112;-67
2023/09/26 07:35:02;;;;;;;10.60;9.60;;;;;;;19.01;100.00;101661.20;88301;280;22559;-69
2023/09/26 07:37:04;;;;;;;12.20;10.20;;;;;;;19.04;100.00;101658.88;88460;275;137653;-63
2023/09/26 07:39:08;;;;;;;13.40;9.90;;;;;;;19.11;100.00;101657.56;88475;274;22569;-63
2023/09/26 07:41:10;;;;;;;9.30;8.60;;;;;;;19.18;100.00;101658.20;88260;280;138273;-63
2023/09/26 07:43:11;;;;;;;10.00;9.10;;;;;;;19.22;100.00;101654.73;88556;282;22531;-62
2023/09/26 07:45:16;;;;;;;10.50;9.40;;;;;;;19.27;100.00;101652.38;88373;274;137375;-64
2023/09/26 07:47:18;;;;;;;;;;;;;;;19.29;100.00;101655.61;88365;276;23702;-61
2023/09/26 07:49:21;;;;;;;14.60;9.20;;;;;;;19.30;100.00;101656.11;88419;282;123558;-64
2023/09/26 07:51:23;;;;;;;10.30;9.30;;;;;;;19.35;100.00;101652.60;88469;282;22602;-63
2023/09/26 07:53:25;;;;;;;10.50;9.60;;;;;;;19.46;100.00;101656.83;88394;281;137475;-67
2023/09/26 07:55:26;;;;;;;10.10;9.10;;;;;;;19.57;100.00;101657.77;88490;281;22682;-62
2023/09/26 07:57:28;;;;;;;9.40;8.60;;;;;;;19.69;100.00;101652.73;88334;283;137074;-64
2023/09/26 07:59:30;;;;;;;12.60;9.60;;;;;;;19.81;100.00;101646.10;88387;275;25083;-63
2023/09/26 08:01:33;;;;;;;10.20;9.20;;;;;;;19.94;100.00;101647.46;88288;275;137611;-63
2023/09/26 08:03:40;;;;;;;9.00;8.20;;;;;;;20.03;100.00;101643.58;88319;276;22703;-61
2023/09/26 08:05:42;;;;;;;8.80;8.00;;;;;;;20.08;100.00;101640.50;88330;278;137001;-64
2023/09/26 08:07:44;;;;;;;8.20;7.50;;;;;;;20.10;100.00;101639.86;88359;283;24466;-61
2023/09/26 08:09:46;;;;;;;9.10;8.10;;;;;;;20.17;100.00;101638.14;88378;274;137219;-65
2023/09/26 08:11:48;;;;;;;11.10;9.00;;;;;;;20.14;100.00;101628.92;88466;278;25140;-72
2023/09/26 08:13:50;;;;;;;10.80;8.40;;;;;;;20.19;100.00;101636.68;88179;275;137466;-65
2023/09/26 08:15:52;;;;;;;8.50;7.70;;;;;;;20.17;100.00;101633.35;88430;276;22535;-60
2023/09/26 08:17:54;;;;;;;8.70;8.00;;;;;;;20.21;100.00;101632.53;88378;279;136394;-71
2023/09/26 08:19:56;;;;;;;16.60;9.40;;;;;;;20.20;100.00;101624.21;88545;274;22538;-69
2023/09/26 08:21:59;;;;;;;9.00;8.10;;;;;;;20.29;100.00;101633.30;88327;281;136797;-69
2023/09/26 08:24:03;;;;;;;8.50;7.80;;;;;;;20.34;100.00;101632.63;88524;273;22527;-70
2023/09/26 08:26:10;;;;;;;9.60;8.70;;;;;;;20.39;100.00;101629.83;88521;282;22511;-67
2023/09/26 08:28:12;;;;;;;8.20;7.60;;;;;;;20.42;100.00;101625.05;88353;275;137425;-67
2023/09/26 08:30:14;;;;;;;9.20;8.30;;;;;;;20.45;100.00;101628.53;88510;275;23977;-72
2023/09/26 08:32:16;;;;;;;9.00;8.30;;;;;;;20.44;100.00;101623.84;88247;282;137094;-67
2023/09/26 08:34:18;;;;;;;8.40;7.70;;;;;;;20.46;100.00;101624.15;88500;275;22537;-69
2023/09/26 08:36:21;;;;;;;9.30;7.80;;;;;;;20.51;100.00;101620.05;88166;277;137907;-68
2023/09/26 08:38:23;;;;;;;9.90;8.70;;;;;;;20.55;100.00;101621.81;88532;274;24134;-70
2023/09/26 08:40:26;;;;;;;8.90;7.70;;;;;;;20.58;100.00;101620.60;88387;274;136985;-70
2023/09/26 08:42:30;;;;;;;13.70;8.50;;;;;;;20.60;100.00;101621.41;88800;274;22460;-68
2023/09/26 08:44:32;;;;;;;7.50;7.00;;;;;;;20.67;100.00;101621.43;88444;274;139109;-67
2023/09/26 08:46:34;;;;;;;8.90;8.20;;;;;;;20.73;100.00;101620.16;88474;274;25105;-69
2023/09/26 08:48:37;;;;;;;8.50;7.70;;;;;;;20.75;100.00;101625.80;88485;274;137185;-64
2023/09/26 08:50:39;;;;;;;10.40;8.40;;;;;;;20.75;100.00;101618.08;88341;274;24017;-68
2023/09/26 08:52:41;;;;;;;9.50;7.70;;;;;;;20.79;100.00;101619.02;88354;278;136563;-68
2023/09/26 08:54:43;;;;;;;10.00;8.60;;;;;;;20.84;100.00;101615.08;88494;278;22657;-69
2023/09/26 08:56:46;;;;;;;11.40;8.90;;;;;;;20.89;100.00;101614.65;88400;281;136664;-68
2023/09/26 08:58:50;;;;;;;8.30;7.30;;;;;;;20.93;100.00;101614.48;88633;278;25211;-69
2023/09/26 09:00:52;;;;;;;9.40;8.40;;;;;;;20.99;100.00;101608.15;88411;274;136309;-70
2023/09/26 09:02:54;;;;;;;7.50;6.70;;;;;;;21.07;100.00;101611.73;88483;278;22562;-71
2023/09/26 09:04:56;;;;;;;13.80;8.50;;;;;;;21.16;100.00;101618.48;88288;274;137082;-72
2023/09/26 09:07:06;;;;;;;9.80;7.30;;;;;;;21.23;100.00;101613.20;88473;274;25106;-70
2023/09/26 09:09:13;;;;;;;7.50;6.90;;;;;;;21.29;100.00;101613.49;88409;278;137246;-71
2023/09/26 09:11:31;;;;;;;8.30;7.40;;;;;;;21.36;100.00;101609.19;88387;280;22698;-70
2023/09/26 09:13:37;;;;;;;9.70;7.80;;;;;;;21.44;100.00;101608.39;88200;283;136385;-69
2023/09/26 09:15:39;;;;;;;6.70;6.10;;;;;;;21.51;100.00;101605.59;88560;278;22537;-73
2023/09/26 09:17:49;;;;;;;7.90;7.20;;;;;;;21.54;100.00;101600.91;88395;275;136467;-65
2023/09/26 09:19:52;;;;;;;7.80;7.10;;;;;;;21.57;100.00;101604.29;88528;282;22811;-69
2023/09/26 09:22:14;;;;;;;11.40;7.60;;;;;;;21.58;100.00;101610.57;88287;275;136147;-68